Time;durP1;ratioP1;P1;durP2;ratioP2;P2;SDS_P1;SDS_P2;PMS_P1;PMS_P2;Temp;Humidity;BMP_temperature;BMP_pressure;BME280_temperature;BME280_humidity;BME280_pressure;Samples;Min_cycle;Max_cycle;Signal;HPM_P1;HPM_P2
2023/07/16 00:01:29;;;;;;;5.70;0.90;;;31.10;99.90;;;;;;5015126;28;20116;-47
2023/07/16 00:03:55;;;;;;;2.50;0.88;;;31.10;99.90;;;;;;5029881;28;20110;-48
2023/07/16 00:06:20;;;;;;;2.60;0.90;;;31.10;99.90;;;;;;5029700;28;20030;-48
2023/07/16 00:08:46;;;;;;;2.67;0.73;;;31.10;99.90;;;;;;5014705;28;20030;-51
2023/07/16 00:11:12;;;;;;;4.20;0.95;;;31.10;99.90;;;;;;5008072;28;20015;-44
2023/07/16 00:13:38;;;;;;;9.15;1.30;;;31.00;99.90;;;;;;5011865;28;20109;-44
2023/07/16 00:16:04;;;;;;;6.38;1.60;;;31.10;99.90;;;;;;5012151;28;20481;-45
2023/07/16 00:18:30;;;;;;;6.35;1.98;;;31.00;99.90;;;;;;5011386;28;20025;-47
2023/07/16 00:20:56;;;;;;;4.30;1.30;;;31.00;99.90;;;;;;5010157;28;20018;-47
2023/07/16 00:23:21;;;;;;;9.23;2.20;;;30.90;99.90;;;;;;5011447;28;20109;-47
2023/07/16 00:25:47;;;;;;;6.15;1.20;;;30.80;99.90;;;;;;5012166;28;20037;-47
2023/07/16 00:28:13;;;;;;;9.75;2.13;;;30.70;99.90;;;;;;5010996;28;20030;-47
2023/07/16 00:30:39;;;;;;;2.88;1.00;;;30.70;99.90;;;;;;5007632;28;20512;-47
2023/07/16 00:33:05;;;;;;;3.65;0.88;;;30.60;99.90;;;;;;5010470;28;20033;-47
2023/07/16 00:35:30;;;;;;;4.78;1.27;;;30.60;99.90;;;;;;5011745;28;20029;-47
2023/07/16 00:37:56;;;;;;;5.05;0.80;;;30.60;99.90;;;;;;5010161;28;20029;-46
2023/07/16 00:40:22;;;;;;;3.10;0.80;;;30.60;99.90;;;;;;5026578;28;20033;-47
2023/07/16 00:42:47;;;;;;;2.85;0.98;;;30.60;99.90;;;;;;5011316;28;20024;-46
2023/07/16 00:45:14;;;;;;;2.10;1.00;;;30.50;99.90;;;;;;5011200;28;20378;-47
2023/07/16 00:47:42;;;;;;;7.40;2.40;;;30.60;99.90;;;;;;5010571;28;20148;-46
2023/07/16 00:50:10;;;;;;;7.43;1.88;;;30.60;99.90;;;;;;5010963;28;20386;-46
2023/07/16 00:52:36;;;;;;;6.05;2.03;;;30.60;99.90;;;;;;5009538;28;20061;-46
2023/07/16 00:55:02;;;;;;;8.60;2.55;;;30.50;99.90;;;;;;5010824;28;20382;-47
2023/07/16 00:57:28;;;;;;;10.20;2.28;;;30.40;99.90;;;;;;5005771;28;20344;-47
2023/07/16 00:59:56;;;;;;;8.77;2.10;;;30.30;99.90;;;;;;5011893;28;20482;-47
2023/07/16 01:02:22;;;;;;;9.88;2.50;;;30.30;99.90;;;;;;5010908;28;20045;-48
2023/07/16 01:04:48;;;;;;;6.55;1.77;;;30.20;99.90;;;;;;5007702;28;20030;-47
2023/07/16 01:07:15;;;;;;;10.85;2.22;;;30.10;99.90;;;;;;4994273;28;20029;-47
2023/07/16 01:09:45;;;;;;;9.60;2.13;;;30.00;99.90;;;;;;5009710;28;20041;-47
2023/07/16 01:12:12;;;;;;;9.82;2.25;;;29.90;99.90;;;;;;4993021;28;20505;-47
2023/07/16 01:14:40;;;;;;;12.70;2.58;;;29.80;99.90;;;;;;5010493;28;20034;-47
2023/07/16 01:17:06;;;;;;;10.80;2.45;;;29.60;99.90;;;;;;5010884;28;20076;-47
2023/07/16 01:19:35;;;;;;;8.07;2.05;;;29.60;99.90;;;;;;5009708;28;20030;-47
2023/07/16 01:22:34;;;;;;;7.85;2.03;;;29.50;99.90;;;;;;5010110;28;20474;-47
2023/07/16 01:25:23;;;;;;;8.10;2.22;;;29.40;99.90;;;;;;5008201;28;20469;-47
2023/07/16 01:28:07;;;;;;;13.20;2.28;;;29.30;99.90;;;;;;5005773;28;20399;-47
2023/07/16 01:30:36;;;;;;;10.00;1.75;;;29.20;99.90;;;;;;5009059;28;20022;-48
2023/07/16 01:33:04;;;;;;;14.25;2.38;;;29.20;99.90;;;;;;5009589;28;20045;-49
2023/07/16 01:35:29;;;;;;;13.02;2.45;;;29.10;99.90;;;;;;5008594;28;20518;-49
2023/07/16 01:37:56;;;;;;;6.18;1.67;;;29.10;99.90;;;;;;5010713;28;20034;-48
2023/07/16 01:40:21;;;;;;;9.90;1.70;;;29.00;99.90;;;;;;5009060;28;20026;-49
2023/07/16 01:42:47;;;;;;;7.53;1.55;;;29.00;99.90;;;;;;5011081;28;20021;-49
2023/07/16 01:45:13;;;;;;;8.57;1.80;;;28.90;99.90;;;;;;5008579;28;20029;-49
2023/07/16 01:47:48;;;;;;;13.55;1.90;;;28.90;99.90;;;;;;5009397;28;20072;-48
2023/07/16 01:50:14;;;;;;;6.03;1.75;;;28.90;99.90;;;;;;5008124;28;20029;-49
2023/07/16 01:52:40;;;;;;;2.83;1.15;;;28.90;99.90;;;;;;5010462;28;20116;-49
2023/07/16 01:55:06;;;;;;;4.18;1.30;;;28.90;99.90;;;;;;5025247;28;20112;-48
2023/07/16 01:57:32;;;;;;;2.15;0.80;;;29.00;99.90;;;;;;5025398;28;20390;-48
2023/07/16 01:59:58;;;;;;;7.75;1.25;;;29.00;99.90;;;;;;4992797;28;20478;-49
2023/07/16 02:02:24;;;;;;;2.25;0.90;;;29.10;99.90;;;;;;5010862;28;20084;-48
2023/07/16 02:04:50;;;;;;;4.88;1.10;;;29.10;99.90;;;;;;5009092;28;20092;-49
2023/07/16 02:07:15;;;;;;;4.05;1.00;;;29.20;99.90;;;;;;5007672;28;20082;-49
2023/07/16 02:09:41;;;;;;;5.78;1.33;;;29.20;99.90;;;;;;5010422;28;20025;-49
2023/07/16 02:12:07;;;;;;;5.38;1.20;;;29.30;99.90;;;;;;5008766;28;20493;-48
2023/07/16 02:14:33;;;;;;;4.85;0.95;;;29.30;99.90;;;;;;5009846;28;20429;-48
2023/07/16 02:16:58;;;;;;;6.18;1.00;;;29.30;99.90;;;;;;5009101;28;20474;-47
2023/07/16 02:19:25;;;;;;;4.43;1.02;;;29.40;99.90;;;;;;5008872;28;20060;-47
2023/07/16 02:21:51;;;;;;;2.50;1.08;;;29.40;99.90;;;;;;5025237;28;20018;-46
2023/07/16 02:24:20;;;;;;;6.13;1.13;;;29.40;99.90;;;;;;5007736;28;20053;-48
2023/07/16 02:26:46;;;;;;;9.77;1.10;;;29.40;99.90;;;;;;5009408;28;20048;-47
2023/07/16 02:29:12;;;;;;;3.75;1.10;;;29.50;99.90;;;;;;5010096;28;20022;-47
2023/07/16 02:31:38;;;;;;;4.68;1.30;;;29.40;99.90;;;;;;5010617;28;20033;-47
2023/07/16 02:34:03;;;;;;;6.22;1.40;;;29.50;99.90;;;;;;5009469;28;20038;-48
2023/07/16 02:36:29;;;;;;;2.80;1.10;;;29.50;99.90;;;;;;5007527;28;20394;-48
2023/07/16 02:38:55;;;;;;;5.38;0.93;;;29.50;99.90;;;;;;5009724;28;20026;-47
2023/07/16 02:41:21;;;;;;;4.47;0.93;;;29.60;99.90;;;;;;5009489;28;20105;-49
2023/07/16 02:43:47;;;;;;;5.03;1.20;;;29.60;99.90;;;;;;5008462;28;20030;-49
2023/07/16 02:46:13;;;;;;;5.30;0.90;;;29.60;99.90;;;;;;5007301;28;20056;-49
2023/07/16 02:48:38;;;;;;;1.73;0.98;;;29.60;99.90;;;;;;5009997;28;20050;-48
2023/07/16 02:51:04;;;;;;;4.32;1.10;;;29.60;99.90;;;;;;4994382;28;20015;-48
2023/07/16 02:53:30;;;;;;;4.28;1.20;;;29.60;99.90;;;;;;4995760;28;20034;-48
2023/07/16 02:55:56;;;;;;;3.55;1.00;;;29.70;99.90;;;;;;4996367;28;20526;-48
2023/07/16 02:58:21;;;;;;;5.43;1.30;;;29.70;99.90;;;;;;5009258;28;20076;-48
2023/07/16 03:00:47;;;;;;;2.05;1.13;;;29.70;99.90;;;;;;5025447;28;20034;-49
2023/07/16 03:03:13;;;;;;;2.28;1.38;;;29.80;99.90;;;;;;5026682;28;20097;-48
2023/07/16 03:05:39;;;;;;;4.35;1.15;;;29.80;99.90;;;;;;5011970;28;20053;-48
2023/07/16 03:08:04;;;;;;;4.63;1.75;;;29.90;99.90;;;;;;5012065;28;20030;-48
2023/07/16 03:10:30;;;;;;;7.53;2.47;;;29.90;99.90;;;;;;5011502;28;20037;-48
2023/07/16 03:12:56;;;;;;;6.72;1.90;;;29.90;99.90;;;;;;5010787;28;20069;-48
2023/07/16 03:15:22;;;;;;;5.22;1.88;;;29.90;99.90;;;;;;5009713;28;20041;-48
2023/07/16 03:17:47;;;;;;;10.82;2.78;;;29.90;99.90;;;;;;5025018;28;20109;-48
2023/07/16 03:20:13;;;;;;;9.43;2.50;;;29.90;99.90;;;;;;5013253;28;20030;-47
2023/07/16 03:22:39;;;;;;;9.70;2.15;;;29.80;99.90;;;;;;5028726;28;20026;-48
2023/07/16 03:25:06;;;;;;;9.40;2.20;;;29.70;99.90;;;;;;5028870;28;20053;-47
2023/07/16 03:27:31;;;;;;;9.40;2.08;;;29.70;99.90;;;;;;5013478;28;20473;-50
2023/07/16 03:29:57;;;;;;;9.35;2.00;;;29.70;99.90;;;;;;5015370;28;20022;-47
2023/07/16 03:32:23;;;;;;;8.77;1.90;;;29.60;99.90;;;;;;5030410;28;20100;-48
2023/07/16 03:34:49;;;;;;;5.35;2.05;;;29.60;99.90;;;;;;5013892;28;20040;-47
2023/07/16 03:37:14;;;;;;;8.02;2.17;;;29.50;99.90;;;;;;5030376;28;20073;-46
2023/07/16 03:39:40;;;;;;;6.85;1.75;;;29.50;99.90;;;;;;5013992;28;20032;-46
2023/07/16 03:42:06;;;;;;;4.88;1.48;;;29.50;99.90;;;;;;5015201;28;20025;-46
2023/07/16 03:44:32;;;;;;;9.23;2.47;;;29.50;99.90;;;;;;5013831;28;20041;-46
2023/07/16 03:46:57;;;;;;;11.10;2.42;;;29.50;99.90;;;;;;5030009;28;20377;-47
2023/07/16 03:49:23;;;;;;;7.95;1.80;;;29.50;99.90;;;;;;5014929;28;20549;-46
2023/07/16 03:51:49;;;;;;;9.75;2.25;;;29.50;99.90;;;;;;5014701;28;20037;-47
2023/07/16 03:54:15;;;;;;;8.48;2.78;;;29.50;99.90;;;;;;5014880;28;20100;-46
2023/07/16 03:56:41;;;;;;;8.45;1.92;;;29.40;99.90;;;;;;5014788;28;20109;-48
2023/07/16 03:59:06;;;;;;;9.50;1.92;;;29.40;99.90;;;;;;5015141;28;20026;-46
2023/07/16 04:01:32;;;;;;;7.05;2.38;;;29.40;99.90;;;;;;5014958;28;20567;-46
2023/07/16 04:03:58;;;;;;;6.38;1.65;;;29.40;99.90;;;;;;5014636;28;20029;-46
2023/07/16 04:06:23;;;;;;;9.07;2.47;;;29.40;99.90;;;;;;5014710;28;20112;-46
2023/07/16 04:08:49;;;;;;;2.80;1.38;;;29.40;99.90;;;;;;5014657;28;20018;-46
2023/07/16 04:11:15;;;;;;;4.88;1.90;;;29.40;99.90;;;;;;5014619;28;20033;-46
2023/07/16 04:13:41;;;;;;;5.25;1.80;;;29.40;99.90;;;;;;5014055;28;20052;-46
2023/07/16 04:16:06;;;;;;;5.57;1.75;;;29.40;99.90;;;;;;5013445;28;20021;-47
2023/07/16 04:18:32;;;;;;;8.13;2.78;;;29.40;99.90;;;;;;5014325;28;20021;-47
2023/07/16 04:20:58;;;;;;;11.23;1.70;;;29.40;99.90;;;;;;5013965;28;20061;-48
2023/07/16 04:23:25;;;;;;;10.98;2.13;;;29.40;99.90;;;;;;5029668;28;20025;-47
2023/07/16 04:25:55;;;;;;;7.43;2.35;;;29.40;99.90;;;;;;5014433;28;20017;-48
2023/07/16 04:28:21;;;;;;;7.28;1.48;;;29.40;99.90;;;;;;5014206;28;20470;-48
2023/07/16 04:30:47;;;;;;;10.38;1.98;;;29.40;99.90;;;;;;5013038;28;20028;-49
2023/07/16 04:33:12;;;;;;;10.63;2.10;;;29.40;99.90;;;;;;5029366;28;20487;-48
2023/07/16 04:35:38;;;;;;;7.20;1.85;;;29.40;99.90;;;;;;5029445;28;20073;-49
2023/07/16 04:38:04;;;;;;;5.50;1.80;;;29.40;99.90;;;;;;5014058;28;20029;-49
2023/07/16 04:40:30;;;;;;;5.03;1.83;;;29.40;99.90;;;;;;5013986;28;20486;-48
2023/07/16 04:42:56;;;;;;;8.40;1.90;;;29.40;99.90;;;;;;5012680;28;20374;-48
2023/07/16 04:45:22;;;;;;;8.35;2.33;;;29.40;99.90;;;;;;5028954;28;20025;-48
2023/07/16 04:47:48;;;;;;;8.25;1.70;;;29.40;99.90;;;;;;5029167;28;20058;-47
2023/07/16 04:50:14;;;;;;;5.30;1.98;;;29.40;99.90;;;;;;5012386;28;20032;-48
2023/07/16 04:52:39;;;;;;;5.22;1.70;;;29.40;99.90;;;;;;5014106;28;20034;-47
2023/07/16 04:55:06;;;;;;;5.63;1.85;;;29.40;99.90;;;;;;5013797;28;20069;-47
2023/07/16 04:57:33;;;;;;;5.53;1.65;;;29.40;99.90;;;;;;5000540;28;20535;-47
2023/07/16 04:59:58;;;;;;;5.78;1.60;;;29.40;99.90;;;;;;5013561;28;20026;-47
2023/07/16 05:02:24;;;;;;;3.53;1.50;;;29.40;99.90;;;;;;5013692;28;20391;-48
2023/07/16 05:04:50;;;;;;;6.45;1.60;;;29.50;99.90;;;;;;5013541;28;20483;-47
2023/07/16 05:07:16;;;;;;;5.97;1.92;;;29.50;99.90;;;;;;5012331;28;20037;-48
2023/07/16 05:09:43;;;;;;;7.88;2.05;;;29.60;99.90;;;;;;5013810;28;20030;-48
2023/07/16 05:12:09;;;;;;;4.38;1.60;;;29.60;99.90;;;;;;5013484;28;20021;-47
2023/07/16 05:14:47;;;;;;;6.50;1.98;;;29.60;99.90;;;;;;5013371;28;20037;-48
2023/07/16 05:17:14;;;;;;;5.18;2.42;;;29.60;99.90;;;;;;5013562;28;20014;-48
2023/07/16 05:19:40;;;;;;;4.80;1.90;;;29.70;99.90;;;;;;5013394;28;20026;-47
2023/07/16 05:22:06;;;;;;;5.63;1.40;;;29.70;99.90;;;;;;5013108;28;20041;-47
2023/07/16 05:24:32;;;;;;;5.03;1.70;;;29.70;99.90;;;;;;5013107;28;20026;-49
2023/07/16 05:26:58;;;;;;;4.55;1.77;;;29.80;99.90;;;;;;5013103;28;20367;-48
2023/07/16 05:29:24;;;;;;;9.27;2.03;;;29.80;99.90;;;;;;5028440;28;20033;-48
2023/07/16 05:31:50;;;;;;;7.15;1.98;;;29.80;99.90;;;;;;5013022;28;20022;-48
2023/07/16 05:34:15;;;;;;;6.07;2.45;;;29.80;99.90;;;;;;5028019;28;20088;-49
2023/07/16 05:36:42;;;;;;;3.97;1.70;;;29.90;99.90;;;;;;5013222;28;20414;-48
2023/07/16 05:39:08;;;;;;;4.80;1.40;;;29.80;99.90;;;;;;5000165;28;20084;-48
2023/07/16 05:41:34;;;;;;;7.65;1.92;;;29.80;99.90;;;;;;5012775;28;20264;-49
2023/07/16 05:44:00;;;;;;;5.70;2.05;;;29.90;99.90;;;;;;5027829;28;20482;-48
2023/07/16 05:46:25;;;;;;;5.75;2.15;;;29.90;99.90;;;;;;5012744;28;20048;-48
2023/07/16 05:48:52;;;;;;;9.07;1.67;;;29.90;99.90;;;;;;5012849;28;20022;-49
2023/07/16 05:51:17;;;;;;;3.42;1.70;;;29.90;99.90;;;;;;5012749;28;20111;-47
2023/07/16 05:53:43;;;;;;;6.28;1.98;;;29.90;99.90;;;;;;5012878;28;20089;-48
2023/07/16 05:56:09;;;;;;;3.30;1.70;;;29.90;99.90;;;;;;5027901;28;20131;-48
2023/07/16 05:58:35;;;;;;;8.20;1.70;;;29.90;99.90;;;;;;5012440;28;20390;-48
2023/07/16 06:01:00;;;;;;;5.13;1.30;;;29.90;99.90;;;;;;5012511;28;20040;-48
2023/07/16 06:03:26;;;;;;;5.10;1.65;;;30.00;99.90;;;;;;5012426;28;20164;-48
2023/07/16 06:05:52;;;;;;;7.90;1.98;;;30.00;99.90;;;;;;5012382;28;20061;-48
2023/07/16 06:08:18;;;;;;;10.52;2.17;;;30.00;99.90;;;;;;5012552;28;20033;-49
2023/07/16 06:10:45;;;;;;;4.50;1.88;;;30.00;99.90;;;;;;5012557;28;20052;-49
2023/07/16 06:13:10;;;;;;;4.33;1.80;;;30.00;99.90;;;;;;5012460;28;20056;-47
2023/07/16 06:15:36;;;;;;;3.40;1.58;;;30.00;99.90;;;;;;5012105;28;20025;-49
2023/07/16 06:18:02;;;;;;;5.78;1.90;;;30.00;99.90;;;;;;5012673;28;20026;-49
2023/07/16 06:20:28;;;;;;;4.68;1.63;;;29.90;99.90;;;;;;5012024;28;20030;-48
2023/07/16 06:22:54;;;;;;;10.40;2.15;;;29.90;99.90;;;;;;5027706;28;20096;-48
2023/07/16 06:25:20;;;;;;;7.10;1.95;;;29.90;99.90;;;;;;5012150;28;20527;-48
2023/07/16 06:27:46;;;;;;;14.95;2.90;;;29.90;99.90;;;;;;5027562;28;20079;-48
2023/07/16 06:30:12;;;;;;;20.05;4.03;;;29.90;99.90;;;;;;5027567;28;20033;-48
2023/07/16 06:32:37;;;;;;;7.47;2.00;;;29.90;99.90;;;;;;5012407;28;20029;-47
2023/07/16 06:35:03;;;;;;;7.88;2.47;;;29.80;99.90;;;;;;5012107;28;20057;-47
2023/07/16 06:37:29;;;;;;;11.77;2.13;;;29.80;99.90;;;;;;5012354;28;20018;-47
2023/07/16 06:39:55;;;;;;;8.02;2.40;;;29.90;99.90;;;;;;5012039;28;20064;-47
2023/07/16 06:42:21;;;;;;;9.35;2.28;;;29.80;99.90;;;;;;5011932;28;20029;-47
2023/07/16 06:44:47;;;;;;;9.93;2.42;;;29.80;99.90;;;;;;5012226;28;20068;-47
2023/07/16 06:47:13;;;;;;;9.27;2.35;;;29.90;99.90;;;;;;5027176;28;20030;-49
2023/07/16 06:49:38;;;;;;;14.38;3.53;;;29.90;99.90;;;;;;5011923;28;20052;-48
2023/07/16 06:52:04;;;;;;;6.00;2.25;;;29.90;99.90;;;;;;5010648;28;20109;-48
2023/07/16 06:54:30;;;;;;;5.25;1.92;;;29.90;99.90;;;;;;5015027;28;20040;-48
2023/07/16 06:56:56;;;;;;;8.45;2.85;;;29.90;99.90;;;;;;5015851;28;20030;-48
2023/07/16 06:59:22;;;;;;;12.32;2.70;;;29.90;99.90;;;;;;5016015;28;20029;-49
2023/07/16 07:01:48;;;;;;;11.57;2.38;;;29.90;99.90;;;;;;5030960;28;20045;-48
2023/07/16 07:04:13;;;;;;;8.38;2.42;;;29.90;99.90;;;;;;5016014;28;20033;-48
2023/07/16 07:06:39;;;;;;;6.47;2.08;;;29.80;99.90;;;;;;5031005;28;20022;-48
2023/07/16 07:09:05;;;;;;;9.07;1.92;;;29.80;99.90;;;;;;5015531;28;20029;-48
2023/07/16 07:11:31;;;;;;;7.40;2.40;;;29.80;99.90;;;;;;5015804;28;20030;-48
2023/07/16 07:13:57;;;;;;;6.77;2.30;;;29.70;99.90;;;;;;5015257;28;20112;-48
2023/07/16 07:16:23;;;;;;;8.98;2.28;;;29.70;99.90;;;;;;5015743;28;20514;-48
2023/07/16 07:18:49;;;;;;;8.77;2.30;;;29.80;99.90;;;;;;5014185;28;20064;-48
2023/07/16 07:21:15;;;;;;;7.90;2.28;;;29.80;99.90;;;;;;5015570;28;20030;-47
2023/07/16 07:23:41;;;;;;;7.78;2.33;;;29.80;99.90;;;;;;5015350;28;20053;-48
2023/07/16 07:26:08;;;;;;;4.80;2.00;;;29.80;99.90;;;;;;5015567;28;20056;-48
2023/07/16 07:28:34;;;;;;;9.60;2.67;;;29.80;99.90;;;;;;5015157;28;20021;-48
2023/07/16 07:31:01;;;;;;;6.60;2.08;;;29.70;99.90;;;;;;5015275;28;20088;-48
2023/07/16 07:33:26;;;;;;;8.60;2.28;;;29.80;99.90;;;;;;5015306;28;20046;-48
2023/07/16 07:35:56;;;;;;;4.25;1.75;;;29.80;99.90;;;;;;5015003;28;20475;-48
2023/07/16 07:38:21;;;;;;;10.88;2.38;;;29.80;99.90;;;;;;5015180;28;20037;-48
2023/07/16 07:40:47;;;;;;;9.80;2.30;;;29.80;99.90;;;;;;5015261;28;20018;-49
2023/07/16 07:43:13;;;;;;;7.65;2.20;;;29.80;99.90;;;;;;5015066;28;20065;-48
2023/07/16 07:45:39;;;;;;;5.13;1.70;;;29.80;99.90;;;;;;5015010;28;20076;-48
2023/07/16 07:48:04;;;;;;;4.32;2.60;;;29.80;99.90;;;;;;5015228;28;20489;-48
2023/07/16 07:50:30;;;;;;;9.50;2.90;;;29.80;99.90;;;;;;5014675;28;20406;-47
2023/07/16 07:52:56;;;;;;;7.30;2.95;;;29.80;99.90;;;;;;5014707;28;20037;-48
2023/07/16 07:55:22;;;;;;;9.02;2.35;;;29.80;99.90;;;;;;5014766;28;20382;-48
2023/07/16 07:57:48;;;;;;;6.15;2.17;;;29.80;99.90;;;;;;5014937;28;20382;-48
2023/07/16 08:00:13;;;;;;;5.57;1.85;;;29.80;99.90;;;;;;5014524;28;20470;-47
2023/07/16 08:02:40;;;;;;;10.52;2.10;;;29.80;99.90;;;;;;5014578;28;20042;-48
2023/07/16 08:05:06;;;;;;;10.38;1.80;;;29.90;99.90;;;;;;5013443;28;20036;-48
2023/07/16 08:07:32;;;;;;;4.82;1.90;;;29.90;99.90;;;;;;5029674;28;20054;-47
2023/07/16 08:09:58;;;;;;;4.70;1.98;;;29.80;99.90;;;;;;5029864;28;20084;-47
2023/07/16 08:12:24;;;;;;;5.63;1.48;;;29.90;99.90;;;;;;5014288;28;20375;-48
2023/07/16 08:14:50;;;;;;;4.85;1.88;;;29.90;99.90;;;;;;5014755;28;20042;-47
2023/07/16 08:17:15;;;;;;;4.97;1.50;;;29.90;99.90;;;;;;5029729;28;20018;-47
2023/07/16 08:19:41;;;;;;;4.53;2.08;;;29.90;99.90;;;;;;5013145;28;20684;-48
2023/07/16 08:22:07;;;;;;;6.78;1.30;;;29.90;99.90;;;;;;5014198;28;20026;-49
2023/07/16 08:24:33;;;;;;;4.30;1.63;;;29.90;99.90;;;;;;5014745;28;20026;-48
2023/07/16 08:26:59;;;;;;;6.43;1.88;;;29.90;99.90;;;;;;5029377;28;20441;-49
2023/07/16 08:29:24;;;;;;;10.35;1.95;;;29.90;99.90;;;;;;5014128;28;20014;-48
2023/07/16 08:31:51;;;;;;;5.57;1.80;;;30.00;99.90;;;;;;5013823;28;20051;-48
2023/07/16 08:34:17;;;;;;;4.97;2.33;;;30.00;99.90;;;;;;5012285;28;20033;-48
2023/07/16 08:36:44;;;;;;;9.35;4.80;;;30.00;99.90;;;;;;5014096;28;20025;-48
2023/07/16 08:39:09;;;;;;;7.68;2.10;;;30.10;99.90;;;;;;5013680;28;20066;-48
2023/07/16 08:41:35;;;;;;;4.82;2.10;;;30.10;99.90;;;;;;5014065;28;20065;-49
2023/07/16 08:44:01;;;;;;;12.65;2.53;;;30.10;99.90;;;;;;4999886;28;20030;-48
2023/07/16 08:46:27;;;;;;;4.90;1.98;;;30.20;99.90;;;;;;4993022;28;20022;-48
2023/07/16 08:48:54;;;;;;;11.27;5.15;;;30.20;99.90;;;;;;4994213;28;20019;-49
2023/07/16 08:51:21;;;;;;;15.93;4.55;;;30.20;99.90;;;;;;5002408;28;20026;-48
2023/07/16 08:53:47;;;;;;;17.08;8.55;;;30.20;99.90;;;;;;5028782;28;20556;-48
2023/07/16 08:56:13;;;;;;;8.35;2.83;;;30.30;99.90;;;;;;5013887;28;20116;-48
2023/07/16 08:58:40;;;;;;;5.88;2.30;;;30.30;99.90;;;;;;5013365;28;20076;-48
2023/07/16 09:01:06;;;;;;;7.60;2.05;;;30.30;99.90;;;;;;5000301;28;20561;-49
2023/07/16 09:03:32;;;;;;;9.63;1.90;;;30.30;99.90;;;;;;5016140;28;20035;-48
2023/07/16 09:05:57;;;;;;;6.93;1.95;;;30.30;99.90;;;;;;5010897;28;20021;-48
2023/07/16 09:08:28;;;;;;;3.38;1.63;;;30.30;99.90;;;;;;5001327;28;20042;-49
2023/07/16 09:10:57;;;;;;;8.68;2.20;;;30.30;99.90;;;;;;5024007;28;20022;-49
2023/07/16 09:13:27;;;;;;;9.10;1.80;;;30.30;99.90;;;;;;4993838;28;20049;-48
2023/07/16 09:15:58;;;;;;;8.07;2.42;;;30.20;99.90;;;;;;4993817;28;20030;-49
2023/07/16 09:18:27;;;;;;;5.10;1.85;;;30.30;99.90;;;;;;4997257;28;20036;-47
2023/07/16 09:20:58;;;;;;;4.80;1.95;;;30.30;99.90;;;;;;5022690;28;20096;-46
2023/07/16 09:23:26;;;;;;;6.88;2.33;;;30.30;99.90;;;;;;5006456;28;20406;-48
2023/07/16 09:25:54;;;;;;;4.38;2.33;;;30.30;99.90;;;;;;5003804;28;20506;-49
2023/07/16 09:28:21;;;;;;;4.22;1.70;;;30.30;99.90;;;;;;5004683;28;20030;-48
2023/07/16 09:30:48;;;;;;;6.03;1.75;;;30.30;99.90;;;;;;5010541;28;20026;-48
2023/07/16 09:33:19;;;;;;;10.15;3.40;;;30.30;99.90;;;;;;5026131;28;20069;-51
2023/07/16 09:35:50;;;;;;;7.93;1.65;;;30.20;99.90;;;;;;5010628;28;20087;-49
2023/07/16 09:38:17;;;;;;;4.82;2.10;;;30.20;99.90;;;;;;5010767;28;20029;-49
2023/07/16 09:40:44;;;;;;;12.00;3.58;;;30.20;99.90;;;;;;5010462;28;20030;-48
2023/07/16 09:43:12;;;;;;;6.00;1.63;;;30.20;99.90;;;;;;5025790;28;20168;-49
2023/07/16 09:45:38;;;;;;;5.00;1.88;;;30.10;99.90;;;;;;5009257;28;20392;-49
2023/07/16 09:48:04;;;;;;;5.70;3.08;;;30.10;99.90;;;;;;5007331;28;20038;-48
2023/07/16 09:50:33;;;;;;;9.10;2.03;;;30.10;99.90;;;;;;5010485;28;20026;-47
2023/07/16 09:52:59;;;;;;;5.20;2.25;;;30.10;99.90;;;;;;5006778;28;20038;-47
2023/07/16 09:55:25;;;;;;;12.10;2.58;;;30.10;99.90;;;;;;5007832;28;20084;-49
2023/07/16 09:57:57;;;;;;;10.02;4.50;;;30.10;99.90;;;;;;5010200;28;20132;-48
2023/07/16 10:00:24;;;;;;;10.05;5.65;;;30.10;99.90;;;;;;5010242;28;20033;-48
2023/07/16 10:02:52;;;;;;;6.90;2.67;;;30.10;99.90;;;;;;5007018;28;20070;-48
2023/07/16 10:05:26;;;;;;;7.95;2.50;;;30.10;99.90;;;;;;5008925;28;20021;-48
2023/07/16 10:08:00;;;;;;;9.60;2.58;;;30.10;99.90;;;;;;5010057;28;20495;-48
2023/07/16 10:10:40;;;;;;;3.28;1.80;;;30.10;99.90;;;;;;5006371;28;20085;-47
2023/07/16 10:13:07;;;;;;;3.92;1.67;;;30.10;99.90;;;;;;5008966;28;20097;-48
2023/07/16 10:15:33;;;;;;;6.45;1.90;;;30.10;99.90;;;;;;5004793;28;20552;-47
2023/07/16 10:17:59;;;;;;;8.25;1.60;;;30.10;99.90;;;;;;5008600;28;20057;-48
2023/07/16 10:20:30;;;;;;;12.93;2.28;;;30.10;99.90;;;;;;5010017;28;20026;-48
2023/07/16 10:22:55;;;;;;;4.88;2.83;;;30.00;99.90;;;;;;5010479;28;20478;-47
2023/07/16 10:25:21;;;;;;;8.38;2.30;;;30.10;99.90;;;;;;5009999;28;20109;-47
2023/07/16 10:27:49;;;;;;;7.28;2.15;;;30.10;99.90;;;;;;5009177;28;20053;-48
2023/07/16 10:30:16;;;;;;;5.30;1.80;;;30.10;99.90;;;;;;5024545;28;20029;-48
2023/07/16 10:32:43;;;;;;;5.60;2.00;;;30.00;99.90;;;;;;5009478;28;20018;-48
2023/07/16 10:35:10;;;;;;;9.32;2.65;;;30.10;99.90;;;;;;5006896;28;20558;-47
2023/07/16 10:37:36;;;;;;;6.65;3.70;;;30.10;99.90;;;;;;5008030;28;20490;-48
2023/07/16 10:40:03;;;;;;;8.60;3.53;;;30.00;99.90;;;;;;5010113;28;20034;-47
2023/07/16 10:42:30;;;;;;;4.93;2.47;;;30.00;99.90;;;;;;5009507;28;20044;-47
2023/07/16 10:45:00;;;;;;;9.90;7.20;;;29.90;99.90;;;;;;5006468;28;20370;-46
2023/07/16 10:47:34;;;;;;;6.45;2.90;;;29.90;99.90;;;;;;5004755;28;20263;-46
2023/07/16 10:50:02;;;;;;;7.97;2.30;;;29.90;99.90;;;;;;5006165;28;20088;-46
2023/07/16 10:52:29;;;;;;;10.38;4.78;;;29.90;99.90;;;;;;5008042;28;20033;-46
2023/07/16 10:54:54;;;;;;;5.45;2.13;;;29.80;99.90;;;;;;5010130;28;20112;-47
2023/07/16 10:57:22;;;;;;;3.55;2.15;;;29.70;99.90;;;;;;5008251;28;20482;-47
2023/07/16 10:59:49;;;;;;;6.60;4.22;;;29.70;99.90;;;;;;5009623;28;20030;-47
2023/07/16 11:02:16;;;;;;;10.27;4.18;;;29.70;99.90;;;;;;5007890;28;20042;-47
2023/07/16 11:04:43;;;;;;;9.38;4.85;;;29.80;99.90;;;;;;5009431;28;20025;-47
2023/07/16 11:07:14;;;;;;;5.50;2.90;;;29.80;99.90;;;;;;5009695;28;20440;-47
2023/07/16 11:09:47;;;;;;;4.72;1.77;;;29.80;99.90;;;;;;5009583;28;20057;-47
2023/07/16 11:12:15;;;;;;;7.13;2.97;;;29.80;99.90;;;;;;5009047;28;20072;-48
2023/07/16 11:14:46;;;;;;;6.93;2.13;;;29.90;99.90;;;;;;5009316;28;20087;-49
2023/07/16 11:17:12;;;;;;;12.25;3.10;;;29.90;99.90;;;;;;5006718;28;20030;-49
2023/07/16 11:19:39;;;;;;;4.40;2.53;;;29.90;99.90;;;;;;5007856;28;20034;-48
2023/07/16 11:22:07;;;;;;;6.38;3.25;;;30.00;99.90;;;;;;5025017;28;20053;-48
2023/07/16 11:24:42;;;;;;;9.65;7.22;;;30.10;99.90;;;;;;5006119;28;20064;-47
2023/07/16 11:27:17;;;;;;;17.20;11.77;;;30.10;99.90;;;;;;5008912;28;20116;-48
2023/07/16 11:30:01;;;;;;;12.50;9.18;;;30.10;99.90;;;;;;5008614;28;20024;-48
2023/07/16 11:32:34;;;;;;;6.95;4.22;;;30.10;99.90;;;;;;5009688;28;20113;-48
2023/07/16 11:35:04;;;;;;;14.30;6.90;;;30.10;99.90;;;;;;5023599;28;20117;-48
2023/07/16 11:37:32;;;;;;;6.63;4.18;;;30.10;99.90;;;;;;5008721;28;20023;-48
2023/07/16 11:40:00;;;;;;;2.42;1.63;;;30.10;99.90;;;;;;5010130;28;20022;-47
2023/07/16 11:42:37;;;;;;;9.20;3.70;;;30.10;99.90;;;;;;5012840;28;20496;-48
2023/07/16 11:45:04;;;;;;;5.93;3.03;;;30.10;99.90;;;;;;5012466;28;20414;-48
2023/07/16 11:47:31;;;;;;;6.80;4.10;;;30.10;99.90;;;;;;5011668;28;20022;-48
2023/07/16 11:49:57;;;;;;;9.93;6.60;;;30.10;99.90;;;;;;5011846;28;20157;-48
2023/07/16 11:52:25;;;;;;;9.07;5.53;;;30.10;99.90;;;;;;5010690;28;20022;-48
2023/07/16 11:55:03;;;;;;;10.63;6.72;;;30.10;99.90;;;;;;5012280;28;20123;-48
2023/07/16 11:57:30;;;;;;;8.05;5.97;;;30.10;99.90;;;;;;5012405;28;20022;-49
2023/07/16 11:59:56;;;;;;;5.95;3.20;;;30.10;99.90;;;;;;5012490;28;20028;-47
2023/07/16 12:02:22;;;;;;;12.65;8.45;;;30.20;99.90;;;;;;5012250;28;20053;-48
2023/07/16 12:04:49;;;;;;;10.88;7.07;;;30.20;99.90;;;;;;5012190;28;20112;-48
2023/07/16 12:07:15;;;;;;;6.75;4.47;;;30.20;99.90;;;;;;5012252;28;20530;-48
2023/07/16 12:09:41;;;;;;;8.27;3.65;;;30.20;99.90;;;;;;5012309;28;20026;-48
2023/07/16 12:12:07;;;;;;;6.30;2.47;;;30.20;99.90;;;;;;5012009;28;20376;-48
2023/07/16 12:14:33;;;;;;;8.90;4.38;;;30.30;99.90;;;;;;5012099;28;20030;-49
2023/07/16 12:16:59;;;;;;;8.35;4.38;;;30.30;99.90;;;;;;5012206;28;20076;-47
2023/07/16 12:19:25;;;;;;;5.05;2.20;;;30.40;99.90;;;;;;5008199;28;20034;-49
2023/07/16 12:21:51;;;;;;;8.07;2.22;;;30.40;99.90;;;;;;5008763;28;20037;-49
2023/07/16 12:24:17;;;;;;;4.68;1.92;;;30.50;99.90;;;;;;4994361;28;20053;-49
2023/07/16 12:26:43;;;;;;;5.43;2.92;;;30.50;99.90;;;;;;5008300;28;20042;-48
2023/07/16 12:29:09;;;;;;;9.32;3.90;;;30.60;99.90;;;;;;5007456;28;20030;-49
2023/07/16 12:31:35;;;;;;;6.43;3.05;;;30.60;99.90;;;;;;5011119;28;20029;-48
2023/07/16 12:34:04;;;;;;;8.90;2.33;;;30.60;99.90;;;;;;5011960;28;20041;-47
2023/07/16 12:36:33;;;;;;;6.20;2.25;;;30.60;99.90;;;;;;5010409;28;20026;-47
2023/07/16 12:38:59;;;;;;;5.80;2.00;;;30.70;99.90;;;;;;5012430;28;20038;-48
2023/07/16 12:41:25;;;;;;;5.53;2.08;;;30.70;99.90;;;;;;5007767;28;20022;-48
2023/07/16 12:43:51;;;;;;;6.78;4.03;;;30.80;99.90;;;;;;5008082;28;20366;-47